createdAt,value
2019-03-22T00:01:30.759Z,5.43
2019-03-22T00:04:35.959Z,5.50
2019-03-22T00:07:40.779Z,4.83
2019-03-22T00:10:45.590Z,6.30
2019-03-22T00:13:50.503Z,5.27
2019-03-22T00:16:55.760Z,5.27
2019-03-22T00:20:01.415Z,5.93
2019-03-22T00:23:07.977Z,5.67
2019-03-22T00:26:12.836Z,5.43
2019-03-22T00:29:19.751Z,4.90
2019-03-22T00:32:24.667Z,5.33
2019-03-22T00:35:32.409Z,6.57
2019-03-22T00:38:37.273Z,5.17
2019-03-22T00:41:43.816Z,4.73
2019-03-22T00:44:48.677Z,5.37
2019-03-22T00:47:53.635Z,5.80
2019-03-22T00:50:58.585Z,5.30
2019-03-22T00:54:03.485Z,6.40
2019-03-22T00:57:09.400Z,5.60
2019-03-22T01:00:15.817Z,5.83
2019-03-22T01:03:20.783Z,5.63
2019-03-22T01:06:25.658Z,5.13
2019-03-22T01:09:32.364Z,5.83
2019-03-22T01:12:37.431Z,6.53
2019-03-22T01:15:42.331Z,5.77
2019-03-22T01:18:47.198Z,7.53
2019-03-22T01:21:52.061Z,6.10
2019-03-22T01:24:56.855Z,6.77
2019-03-22T01:28:02.020Z,8.03
2019-03-22T01:31:06.899Z,6.73
2019-03-22T01:34:11.783Z,6.60
2019-03-22T01:37:17.548Z,6.63
2019-03-22T01:40:22.421Z,7.40
2019-03-22T01:43:27.296Z,6.27
2019-03-22T01:46:32.602Z,6.93
2019-03-22T01:49:37.963Z,6.77
2019-03-22T01:52:42.865Z,5.87
2019-03-22T01:55:48.284Z,6.27
2019-03-22T01:58:53.126Z,7.50
2019-03-22T02:01:59.325Z,6.40
2019-03-22T02:05:05.357Z,7.57
2019-03-22T02:08:10.228Z,7.80
2019-03-22T02:11:15.173Z,6.00
2019-03-22T02:14:20.029Z,7.67
2019-03-22T02:17:24.910Z,9.43
2019-03-22T02:20:29.737Z,6.90
2019-03-22T02:23:34.531Z,6.57
2019-03-22T02:26:39.749Z,7.53
2019-03-22T02:29:44.646Z,6.47
2019-03-22T02:32:49.613Z,6.40
2019-03-22T02:35:54.967Z,6.33
2019-03-22T02:39:00.207Z,7.93
2019-03-22T02:42:05.021Z,7.50
2019-03-22T02:45:10.314Z,6.93
2019-03-22T02:48:15.253Z,7.07
2019-03-22T02:51:20.178Z,7.03
2019-03-22T02:54:25.132Z,7.23
2019-03-22T02:57:29.973Z,7.67
2019-03-22T03:00:34.849Z,6.97
2019-03-22T03:03:39.677Z,6.97
2019-03-22T03:06:44.743Z,7.17
2019-03-22T03:09:49.637Z,5.67
2019-03-22T03:12:54.586Z,7.40
2019-03-22T03:15:59.936Z,6.30
2019-03-22T03:19:04.826Z,5.83
2019-03-22T03:22:09.789Z,6.73
2019-03-22T03:25:15.294Z,6.73
2019-03-22T03:28:35.703Z,6.40
2019-03-22T03:31:28.862Z,7.33
2019-03-22T03:34:34.160Z,6.17
2019-03-22T03:37:39.091Z,5.30
2019-03-22T03:40:44.164Z,6.37
2019-03-22T03:43:50.576Z,5.30
2019-03-22T03:46:55.380Z,6.20
2019-03-22T03:50:00.478Z,5.63
2019-03-22T03:53:05.848Z,6.47
2019-03-22T03:56:10.961Z,4.97
2019-03-22T03:59:15.743Z,6.40
2019-03-22T04:02:21.620Z,6.37
2019-03-22T04:05:26.585Z,6.13
2019-03-22T04:08:31.547Z,7.07
2019-03-22T04:11:36.781Z,5.67
2019-03-22T04:14:42.835Z,7.23
2019-03-22T04:17:47.811Z,6.03
2019-03-22T04:20:53.706Z,5.83
2019-03-22T04:24:00.698Z,6.23
2019-03-22T04:27:05.607Z,5.50
2019-03-22T04:30:10.828Z,5.10
2019-03-22T04:33:15.810Z,4.50
2019-03-22T04:36:21.116Z,5.23
2019-03-22T04:39:26.784Z,4.77
2019-03-22T04:42:31.657Z,6.17
2019-03-22T04:45:38.618Z,6.00
2019-03-22T04:48:44.510Z,6.97
2019-03-22T04:51:50.792Z,7.30
2019-03-22T04:54:59.517Z,6.23
2019-03-22T04:58:06.250Z,5.83
2019-03-22T05:01:12.664Z,7.63
2019-03-22T05:04:18.365Z,7.07
2019-03-22T05:07:23.750Z,6.97
2019-03-22T05:10:30.267Z,6.87
2019-03-22T05:13:37.732Z,7.10
2019-03-22T05:16:45.109Z,6.50
2019-03-22T05:19:54.691Z,6.37
2019-03-22T05:23:00.099Z,8.93
2019-03-22T05:26:05.875Z,6.90
2019-03-22T05:29:12.957Z,5.97
2019-03-22T05:32:20.080Z,7.67
2019-03-22T05:35:26.178Z,7.80
2019-03-22T05:38:31.426Z,9.50
2019-03-22T05:41:36.312Z,12.07
2019-03-22T05:44:41.240Z,9.67
2019-03-22T05:47:46.024Z,7.93
2019-03-22T05:50:50.819Z,6.83
2019-03-22T05:53:55.638Z,7.07
2019-03-22T05:57:12.795Z,7.17
2019-03-22T06:00:10.096Z,7.63
2019-03-22T06:03:15.016Z,8.63
2019-03-22T06:06:20.411Z,8.73
2019-03-22T06:09:25.667Z,7.03
2019-03-22T06:12:30.728Z,6.13
2019-03-22T06:15:39.961Z,6.87
2019-03-22T06:18:44.861Z,5.93
2019-03-22T06:21:49.721Z,7.27
2019-03-22T06:24:54.522Z,5.47
2019-03-22T06:27:59.368Z,4.97
2019-03-22T06:31:04.290Z,5.53
2019-03-22T06:34:09.149Z,5.73
2019-03-22T06:37:14.106Z,4.87
2019-03-22T06:40:20.962Z,5.03
2019-03-22T06:43:25.776Z,6.90
2019-03-22T06:46:31.033Z,5.77
2019-03-22T06:49:38.683Z,6.20
2019-03-22T06:52:45.047Z,5.50
2019-03-22T06:55:50.252Z,6.33
2019-03-22T06:58:55.231Z,6.03
2019-03-22T07:01:59.998Z,6.57
2019-03-22T07:05:04.950Z,6.17
2019-03-22T07:08:11.669Z,7.53
2019-03-22T07:11:16.588Z,7.30
2019-03-22T07:14:21.442Z,8.03
2019-03-22T07:17:26.263Z,5.80
2019-03-22T07:20:31.497Z,7.30
2019-03-22T07:23:36.416Z,6.87
2019-03-22T07:26:41.596Z,6.13
2019-03-22T07:29:46.551Z,5.33
2019-03-22T07:32:51.758Z,7.23
2019-03-22T07:35:57.599Z,5.70
2019-03-22T07:39:06.327Z,6.00
2019-03-22T07:42:13.953Z,6.60
2019-03-22T07:45:18.827Z,7.73
2019-03-22T07:48:24.608Z,9.37
2019-03-22T07:51:29.532Z,7.37
2019-03-22T07:54:34.323Z,7.17
2019-03-22T07:57:41.554Z,7.37
2019-03-22T08:00:47.606Z,6.27
2019-03-22T08:03:52.475Z,6.50
2019-03-22T08:06:57.426Z,6.20
2019-03-22T08:10:04.502Z,7.73
2019-03-22T08:13:09.305Z,7.93
2019-03-22T08:16:14.436Z,9.60
2019-03-22T08:19:19.655Z,9.53
2019-03-22T08:22:24.575Z,11.50
2019-03-22T08:25:32.251Z,10.60
2019-03-22T08:28:37.094Z,12.87
2019-03-22T08:31:42.387Z,11.17
2019-03-22T08:34:47.872Z,12.00
2019-03-22T08:37:53.158Z,10.77
2019-03-22T08:40:58.029Z,11.60
2019-03-22T08:44:03.171Z,8.83
2019-03-22T08:47:08.141Z,10.37
2019-03-22T08:50:13.715Z,10.77
2019-03-22T08:53:18.565Z,10.87
2019-03-22T08:56:25.781Z,8.87
2019-03-22T08:59:30.687Z,10.07
2019-03-22T09:02:35.986Z,11.33
2019-03-22T09:05:40.891Z,9.30
2019-03-22T09:08:47.890Z,11.80
2019-03-22T09:11:53.030Z,12.73
2019-03-22T09:14:58.367Z,12.80
2019-03-22T09:18:03.278Z,11.67
2019-03-22T09:21:09.746Z,12.87
2019-03-22T09:24:14.625Z,10.80
2019-03-22T09:27:23.919Z,11.10
2019-03-22T09:30:31.988Z,10.83
2019-03-22T09:33:36.960Z,9.40
2019-03-22T09:36:41.975Z,11.17
2019-03-22T09:39:46.915Z,11.20
2019-03-22T09:42:53.137Z,11.77
2019-03-22T09:45:58.139Z,9.70
2019-03-22T09:49:03.108Z,15.97
2019-03-22T09:52:08.070Z,13.83
2019-03-22T09:55:14.508Z,10.80
2019-03-22T09:58:20.877Z,10.00
2019-03-22T10:01:26.204Z,11.47
2019-03-22T10:04:31.512Z,8.90
2019-03-22T10:07:36.448Z,8.67
2019-03-22T10:10:41.333Z,7.53
2019-03-22T10:13:48.315Z,10.13
2019-03-22T10:17:23.981Z,11.33
2019-03-22T10:20:29.884Z,10.07
2019-03-22T10:23:34.719Z,9.40
2019-03-22T10:26:40.086Z,8.60
2019-03-22T10:29:44.974Z,12.47
2019-03-22T10:32:50.180Z,8.30
2019-03-22T10:35:55.118Z,11.23
2019-03-22T10:39:00.096Z,11.10
2019-03-22T10:42:06.015Z,11.47
2019-03-22T10:45:30.082Z,11.40
2019-03-22T10:48:36.134Z,9.00
2019-03-22T10:51:40.937Z,9.47
2019-03-22T10:54:45.846Z,10.77
2019-03-22T10:57:51.773Z,8.23
2019-03-22T11:00:56.907Z,9.63
2019-03-22T11:04:01.940Z,11.17
2019-03-22T11:07:07.071Z,13.17
2019-03-22T11:10:13.822Z,11.90
2019-03-22T11:13:18.743Z,12.10
2019-03-22T11:16:27.540Z,12.50
2019-03-22T11:19:33.020Z,12.13
2019-03-22T11:22:38.774Z,11.57
2019-03-22T11:25:44.561Z,10.80
2019-03-22T11:28:51.476Z,11.93
2019-03-22T11:31:57.288Z,10.30
2019-03-22T11:35:02.160Z,11.37
2019-03-22T11:38:07.019Z,11.70
2019-03-22T11:41:11.890Z,8.77
2019-03-22T11:44:17.132Z,10.93
2019-03-22T11:47:22.264Z,13.30
2019-03-22T11:50:28.926Z,12.43
2019-03-22T11:53:35.514Z,12.73
2019-03-22T11:56:40.339Z,10.80
2019-03-22T11:59:45.326Z,14.50
2019-03-22T12:02:50.290Z,15.80
2019-03-22T12:05:57.129Z,12.10
2019-03-22T12:09:02.014Z,13.03
2019-03-22T12:12:06.972Z,12.80
2019-03-22T12:15:12.598Z,14.93
2019-03-22T12:18:18.319Z,13.43
2019-03-22T12:21:23.192Z,16.47
2019-03-22T12:24:27.999Z,18.43
2019-03-22T12:27:36.753Z,17.00
2019-03-22T12:30:40.446Z,19.60
2019-03-22T12:33:45.516Z,15.87
2019-03-22T12:36:50.421Z,15.23
2019-03-22T12:39:55.374Z,13.40
2019-03-22T12:43:03.317Z,13.03
2019-03-22T12:46:10.901Z,15.10
2019-03-22T12:49:15.971Z,14.17
2019-03-22T12:52:20.857Z,16.07
2019-03-22T12:55:28.119Z,12.90
2019-03-22T12:58:33.434Z,12.70
2019-03-22T13:01:38.571Z,12.97
2019-03-22T13:04:44.230Z,15.40
2019-03-22T13:07:49.514Z,10.30
2019-03-22T13:10:58.389Z,10.53
2019-03-22T13:14:10.018Z,9.37
2019-03-22T13:17:25.930Z,9.03
2019-03-22T13:20:31.869Z,8.03
2019-03-22T13:23:36.780Z,9.63
2019-03-22T13:26:41.617Z,8.23
2019-03-22T13:29:46.613Z,11.50
2019-03-22T13:32:52.261Z,10.93
2019-03-22T13:35:57.355Z,8.27
2019-03-22T13:39:02.329Z,4.60
2019-03-22T13:42:07.219Z,5.50
2019-03-22T13:45:13.306Z,3.23
2019-03-22T13:48:18.635Z,3.50
2019-03-22T13:51:23.566Z,2.57
2019-03-22T13:54:28.907Z,3.13
2019-03-22T13:57:34.633Z,2.10
2019-03-22T14:00:40.452Z,2.47
2019-03-22T14:03:45.359Z,4.87
2019-03-22T14:06:50.256Z,2.80
2019-03-22T14:09:55.111Z,2.40
2019-03-22T14:13:00.588Z,2.40
2019-03-22T14:16:05.851Z,2.57
2019-03-22T14:19:10.791Z,2.43
2019-03-22T14:22:16.544Z,2.30
2019-03-22T14:25:21.461Z,1.60
2019-03-22T14:28:26.326Z,2.33
2019-03-22T14:31:31.210Z,2.00
2019-03-22T14:34:36.011Z,4.30
2019-03-22T14:37:40.894Z,3.40
2019-03-22T14:40:45.774Z,1.60
2019-03-22T14:43:51.059Z,1.70
2019-03-22T14:46:57.231Z,2.97
2019-03-22T14:50:02.430Z,2.40
2019-03-22T14:53:09.572Z,1.40
2019-03-22T14:56:14.742Z,1.93
2019-03-22T14:59:19.631Z,1.27
2019-03-22T15:02:27.651Z,8.10
2019-03-22T15:05:32.533Z,6.33
2019-03-22T15:08:37.379Z,4.23
2019-03-22T15:11:45.239Z,2.33
2019-03-22T15:14:57.081Z,1.37
2019-03-22T15:18:21.582Z,2.80
2019-03-22T15:21:53.580Z,1.43
2019-03-22T15:25:17.712Z,2.10
2019-03-22T15:28:41.661Z,2.87
2019-03-22T15:32:04.479Z,3.53
2019-03-22T15:35:31.784Z,1.70
2019-03-22T15:38:54.447Z,1.00
2019-03-22T15:41:59.355Z,3.10
2019-03-22T15:45:05.363Z,3.43
2019-03-22T15:48:10.246Z,5.53
2019-03-22T15:51:15.120Z,2.50
2019-03-22T15:54:31.577Z,1.50
2019-03-22T15:57:37.511Z,1.27
2019-03-22T16:00:42.378Z,1.53
2019-03-22T16:03:47.321Z,1.77
2019-03-22T16:06:53.031Z,1.33
2019-03-22T16:09:57.848Z,1.40
2019-03-22T16:13:03.219Z,1.80
2019-03-22T16:16:09.024Z,1.50
2019-03-22T16:19:13.925Z,2.00
2019-03-22T16:22:21.064Z,3.30
2019-03-22T16:25:25.987Z,2.90
2019-03-22T16:28:30.766Z,4.23
2019-03-22T16:31:35.575Z,3.13
2019-03-22T16:34:40.431Z,2.90
2019-03-22T16:37:45.240Z,2.47
2019-03-22T16:40:50.099Z,7.10
2019-03-22T16:43:54.979Z,6.67
2019-03-22T16:46:59.862Z,4.17
2019-03-22T16:50:05.378Z,4.20
2019-03-22T16:53:10.223Z,2.60
2019-03-22T16:56:15.823Z,4.17
2019-03-22T16:59:22.665Z,2.40
2019-03-22T17:02:30.048Z,2.83
2019-03-22T17:05:36.847Z,1.57
2019-03-22T17:08:41.793Z,2.83
2019-03-22T17:11:46.676Z,2.33
2019-03-22T17:14:55.518Z,2.47
2019-03-22T17:18:00.372Z,2.10
2019-03-22T17:21:06.677Z,1.60
2019-03-22T17:24:11.565Z,1.87
2019-03-22T17:27:18.750Z,1.87
2019-03-22T17:30:23.667Z,1.33
2019-03-22T17:33:28.503Z,1.77
2019-03-22T17:36:33.369Z,2.10
2019-03-22T17:39:38.235Z,2.03
2019-03-22T17:42:43.008Z,2.63
2019-03-22T17:45:48.021Z,2.97
2019-03-22T17:48:53.272Z,2.13
2019-03-22T17:51:58.223Z,2.67
2019-03-22T17:55:03.404Z,1.90
2019-03-22T17:58:08.723Z,1.70
2019-03-22T18:01:15.145Z,2.03
2019-03-22T18:04:24.082Z,2.10
2019-03-22T18:07:27.090Z,2.13
2019-03-22T18:10:31.886Z,2.80
2019-03-22T18:13:37.772Z,2.30
2019-03-22T18:16:42.596Z,3.87
2019-03-22T18:19:49.693Z,3.60
2019-03-22T18:22:54.565Z,2.57
2019-03-22T18:25:59.427Z,2.10
2019-03-22T18:29:04.381Z,1.70
2019-03-22T18:32:09.307Z,2.27
2019-03-22T18:35:14.370Z,2.77
2019-03-22T18:38:20.178Z,1.97
2019-03-22T18:41:25.107Z,2.37
2019-03-22T18:44:30.777Z,3.20
2019-03-22T18:47:35.699Z,2.27
2019-03-22T18:50:40.578Z,1.87
2019-03-22T18:53:45.389Z,2.57
2019-03-22T18:56:50.651Z,8.40
2019-03-22T18:59:55.559Z,7.73
2019-03-22T19:03:00.531Z,5.60
2019-03-22T19:06:05.428Z,6.43
2019-03-22T19:09:11.029Z,4.20
2019-03-22T19:12:18.716Z,3.57
2019-03-22T19:15:23.759Z,3.90
2019-03-22T19:18:28.690Z,3.67
2019-03-22T19:21:33.944Z,3.80
2019-03-22T19:24:38.745Z,2.80
2019-03-22T19:27:43.607Z,3.57
2019-03-22T19:30:48.517Z,3.87
2019-03-22T19:33:53.765Z,3.13
2019-03-22T19:36:58.603Z,2.83
2019-03-22T19:40:03.864Z,2.80
2019-03-22T19:43:08.731Z,3.33
2019-03-22T19:46:13.600Z,3.27
2019-03-22T19:49:18.560Z,3.13
2019-03-22T19:52:24.555Z,3.57
2019-03-22T19:55:29.482Z,4.07
2019-03-22T19:58:35.528Z,4.13
2019-03-22T20:01:40.459Z,4.50
2019-03-22T20:04:45.306Z,4.23
2019-03-22T20:07:50.696Z,6.53
2019-03-22T20:10:56.053Z,7.27
2019-03-22T20:14:03.280Z,6.30
2019-03-22T20:17:10.279Z,5.03
2019-03-22T20:20:15.352Z,4.37
2019-03-22T20:23:20.496Z,4.40
2019-03-22T20:26:25.891Z,5.27
2019-03-22T20:29:30.688Z,5.40
2019-03-22T20:32:35.540Z,3.47
2019-03-22T20:35:42.212Z,3.57
2019-03-22T20:38:48.141Z,3.57
2019-03-22T20:41:53.082Z,3.00
2019-03-22T20:44:59.030Z,9.93
2019-03-22T20:48:03.881Z,10.30
2019-03-22T20:51:08.764Z,7.53
2019-03-22T20:54:14.067Z,11.70
2019-03-22T20:57:19.012Z,16.57
2019-03-22T21:00:23.902Z,13.30
2019-03-22T21:03:28.863Z,10.63
2019-03-22T21:06:34.158Z,11.33
2019-03-22T21:09:39.396Z,13.27
2019-03-22T21:12:45.495Z,10.53
2019-03-22T21:15:51.151Z,8.97
2019-03-22T21:18:55.972Z,7.83
2019-03-22T21:22:00.870Z,6.63
2019-03-22T21:25:06.227Z,5.60
2019-03-22T21:28:11.015Z,8.47
2019-03-22T21:31:15.924Z,6.93
2019-03-22T21:34:20.801Z,8.50
2019-03-22T21:37:26.476Z,8.00
2019-03-22T21:40:31.340Z,8.03
2019-03-22T21:43:36.268Z,8.93
2019-03-22T21:46:41.062Z,8.50
2019-03-22T21:49:45.923Z,9.67
2019-03-22T21:52:52.884Z,8.63
2019-03-22T21:55:57.669Z,9.57
2019-03-22T21:59:02.547Z,8.30
2019-03-22T22:02:07.441Z,6.07
2019-03-22T22:05:12.299Z,6.93
2019-03-22T22:08:17.212Z,7.63
2019-03-22T22:11:22.148Z,7.23
2019-03-22T22:14:28.097Z,9.33
2019-03-22T22:17:33.158Z,10.40
2019-03-22T22:20:38.048Z,10.33
2019-03-22T22:23:44.074Z,7.77
2019-03-22T22:26:50.122Z,8.07
2019-03-22T22:29:56.026Z,6.57
2019-03-22T22:33:00.915Z,5.67
2019-03-22T22:36:05.788Z,6.30
2019-03-22T22:39:10.717Z,5.73
2019-03-22T22:42:15.495Z,5.73
2019-03-22T22:45:20.356Z,6.40
2019-03-22T22:48:25.142Z,7.07
2019-03-22T22:51:30.036Z,5.43
2019-03-22T22:54:34.980Z,6.53
2019-03-22T22:57:39.763Z,6.27
2019-03-22T23:00:45.141Z,5.20
2019-03-22T23:03:49.992Z,4.67
2019-03-22T23:06:55.996Z,5.57
2019-03-22T23:10:02.395Z,5.53
2019-03-22T23:13:08.553Z,6.10
2019-03-22T23:16:13.407Z,4.37
2019-03-22T23:19:18.282Z,5.73
2019-03-22T23:22:23.040Z,5.37
2019-03-22T23:25:27.938Z,4.77
2019-03-22T23:28:33.980Z,5.47
2019-03-22T23:31:38.928Z,4.57
2019-03-22T23:34:44.320Z,5.20
2019-03-22T23:37:51.010Z,4.73
2019-03-22T23:40:55.848Z,6.30
2019-03-22T23:44:00.651Z,5.37
2019-03-22T23:47:05.498Z,5.07
2019-03-22T23:50:10.696Z,4.90
2019-03-22T23:53:15.531Z,5.70
2019-03-22T23:56:21.310Z,5.27
2019-03-22T23:59:26.174Z,4.13
